sensor_id;sensor_type;location;lat;lon;timestamp;P1;durP1;ratioP1;P2;durP2;ratioP2
25936;SDS011;13733;51.178;4.450;2024-02-28T00:01:49;15.30;;;7.90;;
25936;SDS011;13733;51.178;4.450;2024-02-28T00:04:15;11.23;;;7.10;;
25936;SDS011;13733;51.178;4.450;2024-02-28T00:06:41;14.32;;;8.18;;
25936;SDS011;13733;51.178;4.450;2024-02-28T00:09:07;18.48;;;8.90;;
25936;SDS011;13733;51.178;4.450;2024-02-28T00:11:33;16.55;;;8.85;;
25936;SDS011;13733;51.178;4.450;2024-02-28T00:13:59;14.02;;;8.68;;
25936;SDS011;13733;51.178;4.450;2024-02-28T00:16:25;12.63;;;9.07;;
25936;SDS011;13733;51.178;4.450;2024-02-28T00:18:51;14.77;;;8.45;;
25936;SDS011;13733;51.178;4.450;2024-02-28T00:21:16;13.63;;;9.20;;
25936;SDS011;13733;51.178;4.450;2024-02-28T00:23:42;11.40;;;8.88;;
25936;SDS011;13733;51.178;4.450;2024-02-28T00:26:08;12.40;;;8.40;;
25936;SDS011;13733;51.178;4.450;2024-02-28T00:28:34;16.83;;;8.98;;
25936;SDS011;13733;51.178;4.450;2024-02-28T00:31:00;13.40;;;9.10;;
25936;SDS011;13733;51.178;4.450;2024-02-28T00:33:25;13.05;;;9.13;;
25936;SDS011;13733;51.178;4.450;2024-02-28T00:35:51;21.73;;;9.85;;
25936;SDS011;13733;51.178;4.450;2024-02-28T00:38:19;17.38;;;9.93;;
25936;SDS011;13733;51.178;4.450;2024-02-28T00:40:44;13.02;;;9.00;;
25936;SDS011;13733;51.178;4.450;2024-02-28T00:43:10;13.50;;;9.05;;
25936;SDS011;13733;51.178;4.450;2024-02-28T00:45:36;14.70;;;9.07;;
25936;SDS011;13733;51.178;4.450;2024-02-28T00:48:02;18.50;;;9.80;;
25936;SDS011;13733;51.178;4.450;2024-02-28T00:50:28;16.30;;;9.60;;
25936;SDS011;13733;51.178;4.450;2024-02-28T00:52:53;12.93;;;8.57;;
25936;SDS011;13733;51.178;4.450;2024-02-28T00:55:19;15.45;;;9.57;;
25936;SDS011;13733;51.178;4.450;2024-02-28T00:57:45;16.58;;;9.40;;
25936;SDS011;13733;51.178;4.450;2024-02-28T01:00:11;17.02;;;10.07;;
25936;SDS011;13733;51.178;4.450;2024-02-28T01:02:37;14.50;;;10.20;;
25936;SDS011;13733;51.178;4.450;2024-02-28T01:05:02;15.25;;;10.77;;
25936;SDS011;13733;51.178;4.450;2024-02-28T01:07:28;17.08;;;10.60;;
25936;SDS011;13733;51.178;4.450;2024-02-28T01:09:54;15.75;;;9.70;;
25936;SDS011;13733;51.178;4.450;2024-02-28T01:12:20;16.30;;;10.95;;
25936;SDS011;13733;51.178;4.450;2024-02-28T01:14:47;15.20;;;11.35;;
25936;SDS011;13733;51.178;4.450;2024-02-28T01:17:13;17.35;;;9.90;;
25936;SDS011;13733;51.178;4.450;2024-02-28T01:19:38;15.57;;;10.10;;
25936;SDS011;13733;51.178;4.450;2024-02-28T01:22:04;20.25;;;11.18;;
25936;SDS011;13733;51.178;4.450;2024-02-28T01:24:30;16.90;;;11.20;;
25936;SDS011;13733;51.178;4.450;2024-02-28T01:26:56;16.92;;;11.25;;
25936;SDS011;13733;51.178;4.450;2024-02-28T01:29:22;14.85;;;11.30;;
25936;SDS011;13733;51.178;4.450;2024-02-28T01:31:47;16.58;;;10.63;;
25936;SDS011;13733;51.178;4.450;2024-02-28T01:34:13;14.82;;;11.65;;
25936;SDS011;13733;51.178;4.450;2024-02-28T01:36:39;19.15;;;12.55;;
25936;SDS011;13733;51.178;4.450;2024-02-28T01:39:05;17.83;;;12.65;;
25936;SDS011;13733;51.178;4.450;2024-02-28T01:41:30;21.80;;;12.85;;
25936;SDS011;13733;51.178;4.450;2024-02-28T01:43:56;19.65;;;12.48;;
25936;SDS011;13733;51.178;4.450;2024-02-28T01:46:24;23.67;;;12.95;;
25936;SDS011;13733;51.178;4.450;2024-02-28T01:48:52;21.70;;;13.35;;
25936;SDS011;13733;51.178;4.450;2024-02-28T01:51:20;20.25;;;12.93;;
25936;SDS011;13733;51.178;4.450;2024-02-28T01:53:49;19.02;;;12.98;;
25936;SDS011;13733;51.178;4.450;2024-02-28T01:56:17;16.33;;;12.05;;
25936;SDS011;13733;51.178;4.450;2024-02-28T01:58:45;19.08;;;12.95;;
25936;SDS011;13733;51.178;4.450;2024-02-28T02:01:16;18.88;;;12.98;;
25936;SDS011;13733;51.178;4.450;2024-02-28T02:03:48;21.55;;;13.18;;
25936;SDS011;13733;51.178;4.450;2024-02-28T02:06:14;17.65;;;12.80;;
25936;SDS011;13733;51.178;4.450;2024-02-28T02:08:40;20.20;;;13.57;;
25936;SDS011;13733;51.178;4.450;2024-02-28T02:11:06;23.63;;;14.68;;
25936;SDS011;13733;51.178;4.450;2024-02-28T02:13:32;25.98;;;14.18;;
25936;SDS011;13733;51.178;4.450;2024-02-28T02:15:57;22.13;;;13.68;;
25936;SDS011;13733;51.178;4.450;2024-02-28T02:18:23;21.33;;;14.43;;
25936;SDS011;13733;51.178;4.450;2024-02-28T02:20:50;23.25;;;14.18;;
25936;SDS011;13733;51.178;4.450;2024-02-28T02:23:19;23.25;;;13.75;;
25936;SDS011;13733;51.178;4.450;2024-02-28T02:25:46;23.73;;;14.95;;
25936;SDS011;13733;51.178;4.450;2024-02-28T02:28:12;20.23;;;14.23;;
25936;SDS011;13733;51.178;4.450;2024-02-28T02:30:39;22.70;;;15.05;;
25936;SDS011;13733;51.178;4.450;2024-02-28T02:33:05;24.95;;;14.65;;
25936;SDS011;13733;51.178;4.450;2024-02-28T02:35:31;23.60;;;14.90;;
25936;SDS011;13733;51.178;4.450;2024-02-28T02:37:58;27.17;;;15.77;;
25936;SDS011;13733;51.178;4.450;2024-02-28T02:40:24;23.98;;;14.25;;
25936;SDS011;13733;51.178;4.450;2024-02-28T02:42:49;27.58;;;14.68;;
25936;SDS011;13733;51.178;4.450;2024-02-28T02:45:16;22.50;;;15.00;;
25936;SDS011;13733;51.178;4.450;2024-02-28T02:47:42;20.33;;;13.93;;
25936;SDS011;13733;51.178;4.450;2024-02-28T02:50:09;20.80;;;14.40;;
25936;SDS011;13733;51.178;4.450;2024-02-28T02:52:36;26.65;;;15.18;;
25936;SDS011;13733;51.178;4.450;2024-02-28T02:55:01;26.85;;;15.07;;
25936;SDS011;13733;51.178;4.450;2024-02-28T02:57:27;24.00;;;14.27;;
25936;SDS011;13733;51.178;4.450;2024-02-28T02:59:56;19.67;;;14.23;;
25936;SDS011;13733;51.178;4.450;2024-02-28T03:02:22;28.30;;;16.25;;
25936;SDS011;13733;51.178;4.450;2024-02-28T03:04:47;23.48;;;14.63;;
25936;SDS011;13733;51.178;4.450;2024-02-28T03:07:13;27.15;;;14.50;;
25936;SDS011;13733;51.178;4.450;2024-02-28T03:09:39;24.77;;;15.80;;
25936;SDS011;13733;51.178;4.450;2024-02-28T03:12:07;23.83;;;15.00;;
25936;SDS011;13733;51.178;4.450;2024-02-28T03:14:34;24.63;;;15.68;;
25936;SDS011;13733;51.178;4.450;2024-02-28T03:17:01;26.42;;;15.13;;
25936;SDS011;13733;51.178;4.450;2024-02-28T03:19:27;21.55;;;15.00;;
25936;SDS011;13733;51.178;4.450;2024-02-28T03:21:53;25.77;;;16.20;;
25936;SDS011;13733;51.178;4.450;2024-02-28T03:24:18;25.15;;;16.13;;
25936;SDS011;13733;51.178;4.450;2024-02-28T03:26:44;22.40;;;15.05;;
25936;SDS011;13733;51.178;4.450;2024-02-28T03:29:10;23.23;;;14.98;;
25936;SDS011;13733;51.178;4.450;2024-02-28T03:31:36;20.42;;;15.18;;
25936;SDS011;13733;51.178;4.450;2024-02-28T03:34:02;22.98;;;14.70;;
25936;SDS011;13733;51.178;4.450;2024-02-28T03:36:28;20.02;;;14.50;;
25936;SDS011;13733;51.178;4.450;2024-02-28T03:38:54;25.17;;;15.13;;
25936;SDS011;13733;51.178;4.450;2024-02-28T03:41:20;20.55;;;14.68;;
25936;SDS011;13733;51.178;4.450;2024-02-28T03:43:46;20.92;;;15.20;;
25936;SDS011;13733;51.178;4.450;2024-02-28T03:46:12;16.90;;;13.48;;
25936;SDS011;13733;51.178;4.450;2024-02-28T03:48:39;21.85;;;13.70;;
25936;SDS011;13733;51.178;4.450;2024-02-28T03:51:05;22.80;;;15.00;;
25936;SDS011;13733;51.178;4.450;2024-02-28T03:53:31;25.17;;;14.30;;
25936;SDS011;13733;51.178;4.450;2024-02-28T03:55:57;18.63;;;13.23;;
25936;SDS011;13733;51.178;4.450;2024-02-28T03:58:23;21.80;;;14.07;;
25936;SDS011;13733;51.178;4.450;2024-02-28T04:00:49;23.10;;;14.50;;
25936;SDS011;13733;51.178;4.450;2024-02-28T04:03:15;20.67;;;14.23;;
25936;SDS011;13733;51.178;4.450;2024-02-28T04:05:41;23.27;;;14.13;;
25936;SDS011;13733;51.178;4.450;2024-02-28T04:08:07;24.88;;;13.85;;
25936;SDS011;13733;51.178;4.450;2024-02-28T04:10:33;17.30;;;12.85;;
25936;SDS011;13733;51.178;4.450;2024-02-28T04:12:59;22.15;;;13.75;;
25936;SDS011;13733;51.178;4.450;2024-02-28T04:15:25;20.13;;;13.40;;
25936;SDS011;13733;51.178;4.450;2024-02-28T04:17:51;23.60;;;14.30;;
25936;SDS011;13733;51.178;4.450;2024-02-28T04:20:17;19.73;;;13.85;;
25936;SDS011;13733;51.178;4.450;2024-02-28T04:22:43;20.20;;;13.68;;
25936;SDS011;13733;51.178;4.450;2024-02-28T04:25:09;26.42;;;14.52;;
25936;SDS011;13733;51.178;4.450;2024-02-28T04:27:35;23.15;;;14.38;;
25936;SDS011;13733;51.178;4.450;2024-02-28T04:30:02;22.33;;;14.02;;
25936;SDS011;13733;51.178;4.450;2024-02-28T04:32:29;20.63;;;14.40;;
25936;SDS011;13733;51.178;4.450;2024-02-28T04:34:55;19.52;;;13.55;;
25936;SDS011;13733;51.178;4.450;2024-02-28T04:37:21;19.75;;;13.07;;
25936;SDS011;13733;51.178;4.450;2024-02-28T04:39:47;19.30;;;12.50;;
25936;SDS011;13733;51.178;4.450;2024-02-28T04:42:13;22.25;;;13.57;;
25936;SDS011;13733;51.178;4.450;2024-02-28T04:44:41;18.20;;;13.80;;
25936;SDS011;13733;51.178;4.450;2024-02-28T04:47:07;23.10;;;14.13;;
25936;SDS011;13733;51.178;4.450;2024-02-28T04:49:35;22.80;;;14.10;;
25936;SDS011;13733;51.178;4.450;2024-02-28T04:52:02;21.67;;;14.32;;
25936;SDS011;13733;51.178;4.450;2024-02-28T04:54:28;25.00;;;14.75;;
25936;SDS011;13733;51.178;4.450;2024-02-28T04:56:54;23.50;;;15.25;;
25936;SDS011;13733;51.178;4.450;2024-02-28T04:59:20;22.23;;;14.65;;
25936;SDS011;13733;51.178;4.450;2024-02-28T05:01:45;24.70;;;15.50;;
25936;SDS011;13733;51.178;4.450;2024-02-28T05:04:11;30.10;;;15.50;;
25936;SDS011;13733;51.178;4.450;2024-02-28T05:06:37;19.23;;;14.25;;
25936;SDS011;13733;51.178;4.450;2024-02-28T05:09:03;25.13;;;16.05;;
25936;SDS011;13733;51.178;4.450;2024-02-28T05:11:29;20.63;;;14.25;;
25936;SDS011;13733;51.178;4.450;2024-02-28T05:13:55;21.25;;;14.52;;
25936;SDS011;13733;51.178;4.450;2024-02-28T05:16:21;18.70;;;14.02;;
25936;SDS011;13733;51.178;4.450;2024-02-28T05:18:47;22.17;;;14.75;;
25936;SDS011;13733;51.178;4.450;2024-02-28T05:21:13;24.52;;;15.00;;
25936;SDS011;13733;51.178;4.450;2024-02-28T05:23:42;22.25;;;14.52;;
25936;SDS011;13733;51.178;4.450;2024-02-28T05:26:07;23.60;;;15.52;;
25936;SDS011;13733;51.178;4.450;2024-02-28T05:28:34;24.95;;;14.95;;
25936;SDS011;13733;51.178;4.450;2024-02-28T05:33:45;29.02;;;17.00;;
25936;SDS011;13733;51.178;4.450;2024-02-28T05:36:11;24.70;;;15.65;;
25936;SDS011;13733;51.178;4.450;2024-02-28T05:38:37;22.58;;;14.90;;
25936;SDS011;13733;51.178;4.450;2024-02-28T05:41:02;29.45;;;16.55;;
25936;SDS011;13733;51.178;4.450;2024-02-28T05:43:28;22.48;;;15.27;;
25936;SDS011;13733;51.178;4.450;2024-02-28T05:45:54;22.20;;;15.57;;
25936;SDS011;13733;51.178;4.450;2024-02-28T05:48:21;24.48;;;15.68;;
25936;SDS011;13733;51.178;4.450;2024-02-28T05:50:47;29.85;;;15.65;;
25936;SDS011;13733;51.178;4.450;2024-02-28T05:53:13;23.25;;;15.38;;
25936;SDS011;13733;51.178;4.450;2024-02-28T05:55:39;26.23;;;15.82;;
25936;SDS011;13733;51.178;4.450;2024-02-28T05:58:04;23.30;;;15.85;;
25936;SDS011;13733;51.178;4.450;2024-02-28T06:00:30;26.50;;;15.43;;
25936;SDS011;13733;51.178;4.450;2024-02-28T06:02:56;26.50;;;15.90;;
25936;SDS011;13733;51.178;4.450;2024-02-28T06:05:22;25.08;;;16.33;;
25936;SDS011;13733;51.178;4.450;2024-02-28T06:07:47;27.48;;;14.27;;
25936;SDS011;13733;51.178;4.450;2024-02-28T06:10:13;26.35;;;16.77;;
25936;SDS011;13733;51.178;4.450;2024-02-28T06:12:39;23.58;;;16.00;;
25936;SDS011;13733;51.178;4.450;2024-02-28T06:15:06;23.23;;;16.35;;
25936;SDS011;13733;51.178;4.450;2024-02-28T06:17:32;27.35;;;16.17;;
25936;SDS011;13733;51.178;4.450;2024-02-28T06:19:58;24.60;;;16.00;;
25936;SDS011;13733;51.178;4.450;2024-02-28T06:22:24;27.15;;;16.52;;
25936;SDS011;13733;51.178;4.450;2024-02-28T06:24:49;29.92;;;16.95;;
25936;SDS011;13733;51.178;4.450;2024-02-28T06:27:15;27.90;;;16.35;;
25936;SDS011;13733;51.178;4.450;2024-02-28T06:29:41;27.42;;;17.13;;
25936;SDS011;13733;51.178;4.450;2024-02-28T06:32:07;26.58;;;17.83;;
25936;SDS011;13733;51.178;4.450;2024-02-28T06:34:33;25.83;;;16.98;;
25936;SDS011;13733;51.178;4.450;2024-02-28T06:36:59;27.85;;;16.50;;
25936;SDS011;13733;51.178;4.450;2024-02-28T06:39:24;31.13;;;16.42;;
25936;SDS011;13733;51.178;4.450;2024-02-28T06:41:50;22.98;;;16.05;;
25936;SDS011;13733;51.178;4.450;2024-02-28T06:44:20;26.95;;;15.75;;
25936;SDS011;13733;51.178;4.450;2024-02-28T06:46:45;24.85;;;14.93;;
25936;SDS011;13733;51.178;4.450;2024-02-28T06:49:11;27.10;;;16.83;;
25936;SDS011;13733;51.178;4.450;2024-02-28T06:51:37;22.13;;;15.10;;
25936;SDS011;13733;51.178;4.450;2024-02-28T06:54:03;22.70;;;16.08;;
25936;SDS011;13733;51.178;4.450;2024-02-28T06:56:32;24.88;;;15.68;;
25936;SDS011;13733;51.178;4.450;2024-02-28T06:58:58;27.45;;;16.38;;
25936;SDS011;13733;51.178;4.450;2024-02-28T07:01:24;25.45;;;16.70;;
25936;SDS011;13733;51.178;4.450;2024-02-28T07:03:51;25.05;;;16.35;;
25936;SDS011;13733;51.178;4.450;2024-02-28T07:06:17;26.15;;;16.92;;
25936;SDS011;13733;51.178;4.450;2024-02-28T07:08:42;38.17;;;17.90;;
25936;SDS011;13733;51.178;4.450;2024-02-28T07:11:15;23.80;;;17.52;;
25936;SDS011;13733;51.178;4.450;2024-02-28T07:13:41;28.17;;;18.13;;
25936;SDS011;13733;51.178;4.450;2024-02-28T07:16:07;25.88;;;16.67;;
25936;SDS011;13733;51.178;4.450;2024-02-28T07:18:33;30.90;;;16.92;;
25936;SDS011;13733;51.178;4.450;2024-02-28T07:20:59;26.23;;;17.17;;
25936;SDS011;13733;51.178;4.450;2024-02-28T07:23:25;25.70;;;16.83;;
25936;SDS011;13733;51.178;4.450;2024-02-28T07:25:51;26.83;;;16.58;;
25936;SDS011;13733;51.178;4.450;2024-02-28T07:28:17;27.08;;;17.65;;
25936;SDS011;13733;51.178;4.450;2024-02-28T07:30:42;24.58;;;16.70;;
25936;SDS011;13733;51.178;4.450;2024-02-28T07:33:10;30.33;;;17.42;;
25936;SDS011;13733;51.178;4.450;2024-02-28T07:35:48;27.17;;;16.92;;
25936;SDS011;13733;51.178;4.450;2024-02-28T07:38:15;30.13;;;17.52;;
25936;SDS011;13733;51.178;4.450;2024-02-28T07:40:42;30.15;;;17.30;;
25936;SDS011;13733;51.178;4.450;2024-02-28T07:43:08;30.23;;;17.27;;
25936;SDS011;13733;51.178;4.450;2024-02-28T07:45:34;29.55;;;17.13;;
25936;SDS011;13733;51.178;4.450;2024-02-28T07:48:00;26.73;;;16.33;;
25936;SDS011;13733;51.178;4.450;2024-02-28T07:50:26;35.95;;;17.20;;
25936;SDS011;13733;51.178;4.450;2024-02-28T07:52:53;31.85;;;17.73;;
25936;SDS011;13733;51.178;4.450;2024-02-28T07:55:20;29.58;;;18.60;;
25936;SDS011;13733;51.178;4.450;2024-02-28T07:57:50;33.63;;;18.85;;
25936;SDS011;13733;51.178;4.450;2024-02-28T08:00:17;29.58;;;18.27;;
25936;SDS011;13733;51.178;4.450;2024-02-28T08:02:44;35.78;;;18.25;;
25936;SDS011;13733;51.178;4.450;2024-02-28T08:05:10;28.13;;;17.90;;
25936;SDS011;13733;51.178;4.450;2024-02-28T08:07:35;27.85;;;18.38;;
25936;SDS011;13733;51.178;4.450;2024-02-28T08:10:02;32.60;;;17.55;;
25936;SDS011;13733;51.178;4.450;2024-02-28T08:12:30;26.50;;;16.67;;
25936;SDS011;13733;51.178;4.450;2024-02-28T08:14:57;26.23;;;17.90;;
25936;SDS011;13733;51.178;4.450;2024-02-28T08:17:23;34.22;;;18.85;;
25936;SDS011;13733;51.178;4.450;2024-02-28T08:19:49;25.27;;;16.80;;
25936;SDS011;13733;51.178;4.450;2024-02-28T08:22:14;25.25;;;16.73;;
25936;SDS011;13733;51.178;4.450;2024-02-28T08:24:40;29.23;;;17.70;;
25936;SDS011;13733;51.178;4.450;2024-02-28T08:27:06;25.95;;;17.02;;
25936;SDS011;13733;51.178;4.450;2024-02-28T08:29:32;28.05;;;16.52;;
25936;SDS011;13733;51.178;4.450;2024-02-28T08:31:59;28.95;;;17.63;;
25936;SDS011;13733;51.178;4.450;2024-02-28T08:34:24;25.13;;;16.67;;
25936;SDS011;13733;51.178;4.450;2024-02-28T08:36:50;25.90;;;16.90;;
25936;SDS011;13733;51.178;4.450;2024-02-28T08:39:17;30.23;;;17.17;;
25936;SDS011;13733;51.178;4.450;2024-02-28T08:41:43;33.08;;;18.48;;
25936;SDS011;13733;51.178;4.450;2024-02-28T08:44:09;31.27;;;18.10;;
25936;SDS011;13733;51.178;4.450;2024-02-28T08:46:35;34.10;;;18.67;;
25936;SDS011;13733;51.178;4.450;2024-02-28T08:49:01;34.05;;;18.80;;
25936;SDS011;13733;51.178;4.450;2024-02-28T08:51:28;34.80;;;18.55;;
25936;SDS011;13733;51.178;4.450;2024-02-28T08:53:54;39.60;;;18.13;;
25936;SDS011;13733;51.178;4.450;2024-02-28T08:56:20;42.70;;;19.40;;
25936;SDS011;13733;51.178;4.450;2024-02-28T08:58:47;36.92;;;18.20;;
25936;SDS011;13733;51.178;4.450;2024-02-28T09:01:14;34.80;;;19.48;;
25936;SDS011;13733;51.178;4.450;2024-02-28T09:03:43;32.65;;;18.08;;
25936;SDS011;13733;51.178;4.450;2024-02-28T09:06:08;42.88;;;20.55;;
25936;SDS011;13733;51.178;4.450;2024-02-28T09:08:34;41.58;;;20.02;;
25936;SDS011;13733;51.178;4.450;2024-02-28T09:11:00;40.60;;;19.10;;
25936;SDS011;13733;51.178;4.450;2024-02-28T09:13:26;36.20;;;18.85;;
25936;SDS011;13733;51.178;4.450;2024-02-28T09:15:52;37.03;;;19.20;;
25936;SDS011;13733;51.178;4.450;2024-02-28T09:18:18;41.78;;;19.70;;
25936;SDS011;13733;51.178;4.450;2024-02-28T09:20:44;46.75;;;19.25;;
25936;SDS011;13733;51.178;4.450;2024-02-28T09:23:10;40.42;;;19.58;;
25936;SDS011;13733;51.178;4.450;2024-02-28T09:25:35;40.05;;;18.67;;
25936;SDS011;13733;51.178;4.450;2024-02-28T09:28:02;41.58;;;19.35;;
25936;SDS011;13733;51.178;4.450;2024-02-28T09:30:28;43.90;;;19.92;;
25936;SDS011;13733;51.178;4.450;2024-02-28T09:32:54;36.83;;;18.90;;
25936;SDS011;13733;51.178;4.450;2024-02-28T09:35:20;39.80;;;20.75;;
25936;SDS011;13733;51.178;4.450;2024-02-28T09:37:45;41.30;;;20.52;;
25936;SDS011;13733;51.178;4.450;2024-02-28T09:40:11;48.15;;;23.17;;
25936;SDS011;13733;51.178;4.450;2024-02-28T09:42:37;43.15;;;22.20;;
25936;SDS011;13733;51.178;4.450;2024-02-28T09:45:03;43.22;;;20.85;;
25936;SDS011;13733;51.178;4.450;2024-02-28T09:47:31;41.30;;;22.02;;
25936;SDS011;13733;51.178;4.450;2024-02-28T09:49:57;45.35;;;21.30;;
25936;SDS011;13733;51.178;4.450;2024-02-28T09:52:26;33.13;;;18.73;;
25936;SDS011;13733;51.178;4.450;2024-02-28T09:54:55;40.08;;;19.55;;
25936;SDS011;13733;51.178;4.450;2024-02-28T09:57:21;37.75;;;17.23;;
25936;SDS011;13733;51.178;4.450;2024-02-28T09:59:53;34.80;;;16.88;;
25936;SDS011;13733;51.178;4.450;2024-02-28T10:02:24;30.45;;;15.65;;
25936;SDS011;13733;51.178;4.450;2024-02-28T10:04:52;30.40;;;14.95;;
25936;SDS011;13733;51.178;4.450;2024-02-28T10:07:18;27.60;;;14.75;;
25936;SDS011;13733;51.178;4.450;2024-02-28T10:09:44;33.75;;;15.25;;
25936;SDS011;13733;51.178;4.450;2024-02-28T10:12:09;28.35;;;15.32;;
25936;SDS011;13733;51.178;4.450;2024-02-28T10:14:35;24.02;;;14.38;;
25936;SDS011;13733;51.178;4.450;2024-02-28T10:17:01;27.30;;;15.13;;
25936;SDS011;13733;51.178;4.450;2024-02-28T10:19:27;28.83;;;15.07;;
25936;SDS011;13733;51.178;4.450;2024-02-28T10:21:52;34.22;;;16.25;;
25936;SDS011;13733;51.178;4.450;2024-02-28T10:24:18;25.98;;;14.88;;
25936;SDS011;13733;51.178;4.450;2024-02-28T10:26:44;28.60;;;15.32;;
25936;SDS011;13733;51.178;4.450;2024-02-28T10:29:13;25.35;;;15.30;;
25936;SDS011;13733;51.178;4.450;2024-02-28T10:31:39;25.88;;;15.00;;
25936;SDS011;13733;51.178;4.450;2024-02-28T10:34:07;31.27;;;15.00;;
25936;SDS011;13733;51.178;4.450;2024-02-28T10:36:34;28.30;;;15.35;;
25936;SDS011;13733;51.178;4.450;2024-02-28T10:39:01;33.10;;;15.40;;
25936;SDS011;13733;51.178;4.450;2024-02-28T10:41:29;26.40;;;14.80;;
25936;SDS011;13733;51.178;4.450;2024-02-28T10:43:56;25.10;;;15.73;;
25936;SDS011;13733;51.178;4.450;2024-02-28T10:46:22;26.98;;;14.77;;
25936;SDS011;13733;51.178;4.450;2024-02-28T10:48:49;29.00;;;15.18;;
25936;SDS011;13733;51.178;4.450;2024-02-28T10:51:16;24.90;;;13.65;;
25936;SDS011;13733;51.178;4.450;2024-02-28T10:53:53;22.55;;;13.77;;
25936;SDS011;13733;51.178;4.450;2024-02-28T10:56:24;21.70;;;12.45;;
25936;SDS011;13733;51.178;4.450;2024-02-28T10:58:53;23.58;;;12.07;;
25936;SDS011;13733;51.178;4.450;2024-02-28T11:01:24;26.25;;;12.55;;
25936;SDS011;13733;51.178;4.450;2024-02-28T11:03:50;25.63;;;12.18;;
25936;SDS011;13733;51.178;4.450;2024-02-28T11:06:20;19.63;;;12.13;;
25936;SDS011;13733;51.178;4.450;2024-02-28T11:08:47;18.93;;;11.17;;
25936;SDS011;13733;51.178;4.450;2024-02-28T11:11:18;21.10;;;10.80;;
25936;SDS011;13733;51.178;4.450;2024-02-28T11:13:53;15.88;;;9.98;;
25936;SDS011;13733;51.178;4.450;2024-02-28T11:16:26;15.75;;;9.13;;
25936;SDS011;13733;51.178;4.450;2024-02-28T11:18:56;17.27;;;10.02;;
25936;SDS011;13733;51.178;4.450;2024-02-28T11:21:23;19.30;;;9.65;;
25936;SDS011;13733;51.178;4.450;2024-02-28T11:24:02;16.07;;;11.13;;
25936;SDS011;13733;51.178;4.450;2024-02-28T11:26:28;16.60;;;10.75;;
25936;SDS011;13733;51.178;4.450;2024-02-28T11:28:55;17.25;;;9.88;;
25936;SDS011;13733;51.178;4.450;2024-02-28T11:31:21;11.15;;;8.98;;
25936;SDS011;13733;51.178;4.450;2024-02-28T11:33:47;12.80;;;8.40;;
25936;SDS011;13733;51.178;4.450;2024-02-28T11:36:13;15.70;;;9.05;;
25936;SDS011;13733;51.178;4.450;2024-02-28T11:38:39;13.57;;;8.05;;
25936;SDS011;13733;51.178;4.450;2024-02-28T11:41:05;14.95;;;9.25;;
25936;SDS011;13733;51.178;4.450;2024-02-28T11:43:32;13.43;;;8.27;;
25936;SDS011;13733;51.178;4.450;2024-02-28T11:45:58;19.02;;;8.65;;
25936;SDS011;13733;51.178;4.450;2024-02-28T11:48:24;11.95;;;8.27;;
25936;SDS011;13733;51.178;4.450;2024-02-28T11:50:52;12.68;;;7.85;;
25936;SDS011;13733;51.178;4.450;2024-02-28T11:53:19;13.35;;;7.70;;
25936;SDS011;13733;51.178;4.450;2024-02-28T11:55:46;14.10;;;8.50;;
25936;SDS011;13733;51.178;4.450;2024-02-28T11:58:13;12.70;;;7.95;;
25936;SDS011;13733;51.178;4.450;2024-02-28T12:00:51;10.00;;;7.72;;
25936;SDS011;13733;51.178;4.450;2024-02-28T12:03:23;13.75;;;8.68;;
25936;SDS011;13733;51.178;4.450;2024-02-28T12:05:51;12.75;;;8.10;;
25936;SDS011;13733;51.178;4.450;2024-02-28T12:08:17;13.52;;;8.60;;
25936;SDS011;13733;51.178;4.450;2024-02-28T12:10:44;13.07;;;8.13;;
25936;SDS011;13733;51.178;4.450;2024-02-28T12:13:19;13.57;;;7.75;;
25936;SDS011;13733;51.178;4.450;2024-02-28T12:15:45;10.32;;;7.50;;
25936;SDS011;13733;51.178;4.450;2024-02-28T12:18:14;11.63;;;8.00;;
25936;SDS011;13733;51.178;4.450;2024-02-28T12:20:41;9.95;;;7.45;;
25936;SDS011;13733;51.178;4.450;2024-02-28T12:23:06;10.45;;;8.10;;
25936;SDS011;13733;51.178;4.450;2024-02-28T12:25:34;14.48;;;8.32;;
25936;SDS011;13733;51.178;4.450;2024-02-28T12:28:00;11.23;;;7.68;;
25936;SDS011;13733;51.178;4.450;2024-02-28T12:30:27;10.43;;;8.10;;
25936;SDS011;13733;51.178;4.450;2024-02-28T12:32:53;12.32;;;7.53;;
25936;SDS011;13733;51.178;4.450;2024-02-28T12:35:19;15.40;;;8.77;;
25936;SDS011;13733;51.178;4.450;2024-02-28T12:37:45;13.15;;;8.38;;
25936;SDS011;13733;51.178;4.450;2024-02-28T12:40:13;14.13;;;8.45;;
25936;SDS011;13733;51.178;4.450;2024-02-28T12:42:41;14.95;;;8.93;;
25936;SDS011;13733;51.178;4.450;2024-02-28T12:45:06;17.73;;;8.25;;
25936;SDS011;13733;51.178;4.450;2024-02-28T12:47:32;14.48;;;8.25;;
25936;SDS011;13733;51.178;4.450;2024-02-28T12:49:58;13.32;;;8.27;;
25936;SDS011;13733;51.178;4.450;2024-02-28T12:52:24;14.43;;;8.43;;
25936;SDS011;13733;51.178;4.450;2024-02-28T12:54:51;17.88;;;8.60;;
25936;SDS011;13733;51.178;4.450;2024-02-28T12:57:17;11.23;;;7.80;;
25936;SDS011;13733;51.178;4.450;2024-02-28T12:59:43;12.43;;;7.95;;
25936;SDS011;13733;51.178;4.450;2024-02-28T13:02:09;13.23;;;7.80;;
25936;SDS011;13733;51.178;4.450;2024-02-28T13:04:35;11.95;;;8.13;;
25936;SDS011;13733;51.178;4.450;2024-02-28T13:07:01;15.02;;;8.20;;
25936;SDS011;13733;51.178;4.450;2024-02-28T13:09:27;15.52;;;7.80;;
25936;SDS011;13733;51.178;4.450;2024-02-28T13:11:54;17.00;;;8.35;;
25936;SDS011;13733;51.178;4.450;2024-02-28T13:14:20;10.48;;;7.63;;
25936;SDS011;13733;51.178;4.450;2024-02-28T13:16:45;14.95;;;7.78;;
25936;SDS011;13733;51.178;4.450;2024-02-28T13:19:11;11.95;;;7.15;;
25936;SDS011;13733;51.178;4.450;2024-02-28T13:21:39;11.20;;;7.50;;
25936;SDS011;13733;51.178;4.450;2024-02-28T13:24:05;13.75;;;7.38;;
25936;SDS011;13733;51.178;4.450;2024-02-28T13:26:31;15.82;;;7.65;;
25936;SDS011;13733;51.178;4.450;2024-02-28T13:28:56;17.98;;;7.43;;
25936;SDS011;13733;51.178;4.450;2024-02-28T13:31:22;10.10;;;6.55;;
25936;SDS011;13733;51.178;4.450;2024-02-28T13:33:48;12.27;;;6.60;;
25936;SDS011;13733;51.178;4.450;2024-02-28T13:36:14;10.38;;;6.38;;
25936;SDS011;13733;51.178;4.450;2024-02-28T13:38:41;11.02;;;6.70;;
25936;SDS011;13733;51.178;4.450;2024-02-28T13:41:07;11.60;;;5.60;;
25936;SDS011;13733;51.178;4.450;2024-02-28T13:43:33;7.20;;;5.30;;
25936;SDS011;13733;51.178;4.450;2024-02-28T13:45:58;8.00;;;4.97;;
25936;SDS011;13733;51.178;4.450;2024-02-28T13:48:28;11.02;;;5.85;;
25936;SDS011;13733;51.178;4.450;2024-02-28T13:50:55;6.53;;;4.40;;
25936;SDS011;13733;51.178;4.450;2024-02-28T13:53:24;10.82;;;5.15;;
25936;SDS011;13733;51.178;4.450;2024-02-28T13:55:50;9.05;;;5.15;;
25936;SDS011;13733;51.178;4.450;2024-02-28T13:58:18;7.72;;;5.22;;
25936;SDS011;13733;51.178;4.450;2024-02-28T14:00:45;8.50;;;5.00;;
25936;SDS011;13733;51.178;4.450;2024-02-28T14:03:12;9.40;;;5.90;;
25936;SDS011;13733;51.178;4.450;2024-02-28T14:05:38;10.02;;;5.38;;
25936;SDS011;13733;51.178;4.450;2024-02-28T14:08:04;9.40;;;5.60;;
25936;SDS011;13733;51.178;4.450;2024-02-28T14:10:33;6.18;;;5.10;;
25936;SDS011;13733;51.178;4.450;2024-02-28T14:12:59;14.30;;;5.80;;
25936;SDS011;13733;51.178;4.450;2024-02-28T14:15:25;8.93;;;5.63;;
25936;SDS011;13733;51.178;4.450;2024-02-28T14:17:51;12.07;;;5.63;;
25936;SDS011;13733;51.178;4.450;2024-02-28T14:20:17;9.50;;;5.47;;
25936;SDS011;13733;51.178;4.450;2024-02-28T14:22:43;9.57;;;5.30;;
25936;SDS011;13733;51.178;4.450;2024-02-28T14:25:13;8.25;;;5.57;;